createdAt,value
2022-08-26T00:00:35.305Z,7.57
2022-08-26T00:05:42.263Z,8.02
2022-08-26T00:08:15.953Z,6.07
2022-08-26T00:10:48.413Z,7.93
2022-08-26T00:13:20.972Z,7.07
2022-08-26T00:15:53.571Z,7.85
2022-08-26T00:18:27.355Z,8.30
2022-08-26T00:21:06.189Z,8.02
2022-08-26T00:23:38.862Z,9.25
2022-08-26T00:26:11.011Z,7.50
2022-08-26T00:28:43.101Z,10.30
2022-08-26T00:31:14.989Z,7.80
2022-08-26T00:33:48.178Z,12.85
2022-08-26T00:36:21.705Z,9.23
2022-08-26T00:38:53.581Z,9.30
2022-08-26T00:41:25.757Z,7.60
2022-08-26T00:43:57.643Z,8.35
2022-08-26T00:46:35.173Z,8.13
2022-08-26T00:49:14.046Z,6.50
2022-08-26T00:51:50.769Z,8.40
2022-08-26T00:54:27.012Z,9.77
2022-08-26T00:57:02.460Z,9.10
2022-08-26T00:59:36.286Z,9.02
2022-08-26T01:02:20.764Z,7.53
2022-08-26T01:04:58.844Z,7.20
2022-08-26T01:07:33.298Z,7.38
2022-08-26T01:10:10.732Z,8.27
2022-08-26T01:12:47.557Z,8.48
2022-08-26T01:15:23.986Z,8.10
2022-08-26T01:17:55.893Z,10.90
2022-08-26T01:20:36.266Z,9.98
2022-08-26T01:23:10.846Z,12.88
2022-08-26T01:25:46.079Z,10.30
2022-08-26T01:28:21.751Z,9.52
2022-08-26T01:30:54.892Z,9.93
2022-08-26T01:33:42.077Z,10.85
2022-08-26T01:36:15.192Z,9.95
2022-08-26T01:41:27.178Z,11.10
2022-08-26T01:44:03.199Z,9.45
2022-08-26T01:46:35.824Z,13.40
2022-08-26T01:49:08.637Z,11.30
2022-08-26T01:51:44.355Z,11.52
2022-08-26T01:54:17.938Z,11.52
2022-08-26T01:56:53.771Z,15.32
2022-08-26T01:59:25.972Z,10.77
2022-08-26T02:01:58.107Z,8.20
2022-08-26T02:04:33.619Z,8.93
2022-08-26T02:07:08.749Z,11.00
2022-08-26T02:09:42.811Z,10.48
2022-08-26T02:12:17.074Z,8.73
2022-08-26T02:14:53.274Z,11.07
2022-08-26T02:17:29.336Z,13.00
2022-08-26T02:20:03.372Z,9.75
2022-08-26T02:22:35.920Z,8.40
2022-08-26T02:25:14.028Z,9.85
2022-08-26T02:27:48.315Z,10.18
2022-08-26T02:30:23.066Z,11.18
2022-08-26T02:32:58.308Z,10.77
2022-08-26T02:35:31.139Z,13.82
2022-08-26T02:40:45.884Z,12.98
2022-08-26T02:43:31.198Z,10.82
2022-08-26T02:46:03.100Z,15.05
2022-08-26T02:48:34.938Z,12.98
2022-08-26T02:51:07.749Z,11.73
2022-08-26T02:53:39.550Z,9.95
2022-08-26T02:56:12.665Z,11.55
2022-08-26T02:58:44.540Z,11.95
2022-08-26T03:01:22.057Z,11.25
2022-08-26T03:03:54.250Z,10.43
2022-08-26T03:06:26.266Z,12.95
2022-08-26T03:08:58.294Z,12.75
2022-08-26T03:11:33.138Z,16.67
2022-08-26T03:14:05.664Z,12.95
2022-08-26T03:16:37.979Z,13.13
2022-08-26T03:19:11.380Z,11.88
2022-08-26T03:24:17.533Z,10.30
2022-08-26T03:26:52.698Z,11.50
2022-08-26T03:29:43.506Z,11.88
2022-08-26T03:32:16.825Z,9.73
2022-08-26T03:37:21.520Z,11.52
2022-08-26T03:39:53.531Z,11.25
2022-08-26T03:42:27.285Z,10.23
2022-08-26T03:44:59.291Z,8.65
2022-08-26T03:47:31.855Z,9.77
2022-08-26T03:50:05.382Z,11.35
2022-08-26T03:52:39.707Z,9.55
2022-08-26T03:55:16.468Z,11.35
2022-08-26T03:57:50.821Z,12.20
2022-08-26T04:00:23.071Z,8.88
2022-08-26T04:02:56.276Z,11.35
2022-08-26T04:05:28.358Z,10.90
2022-08-26T04:08:00.292Z,12.25
2022-08-26T04:10:32.330Z,13.02
2022-08-26T04:13:05.523Z,13.25
2022-08-26T04:15:39.285Z,12.20
2022-08-26T04:18:11.143Z,11.23
2022-08-26T04:20:43.022Z,11.20
2022-08-26T04:23:16.746Z,13.18
2022-08-26T04:25:49.149Z,11.48
2022-08-26T04:28:22.940Z,15.18
2022-08-26T04:33:32.540Z,11.30
2022-08-26T04:36:05.884Z,15.20
2022-08-26T04:38:38.929Z,13.57
2022-08-26T04:41:15.263Z,14.02
2022-08-26T04:43:50.341Z,13.77
2022-08-26T04:46:24.454Z,14.70
2022-08-26T04:51:28.345Z,13.63
2022-08-26T04:54:00.191Z,14.43
2022-08-26T04:56:37.209Z,12.45
2022-08-26T04:59:16.576Z,15.63
2022-08-26T05:01:52.113Z,12.68
2022-08-26T05:04:24.017Z,12.20
2022-08-26T05:07:02.284Z,18.83
2022-08-26T05:09:34.840Z,13.50
2022-08-26T05:12:07.304Z,13.20
2022-08-26T05:14:41.529Z,13.02
2022-08-26T05:17:15.175Z,13.35
2022-08-26T05:19:47.291Z,11.90
2022-08-26T05:22:20.111Z,12.38
2022-08-26T05:24:52.253Z,12.98
2022-08-26T05:27:24.392Z,15.25
2022-08-26T05:29:58.207Z,12.55
2022-08-26T05:32:29.999Z,12.35
2022-08-26T05:35:01.992Z,17.08
2022-08-26T05:37:34.599Z,12.23
2022-08-26T05:40:08.154Z,12.15
2022-08-26T05:42:40.278Z,16.55
2022-08-26T05:45:13.766Z,20.77
2022-08-26T05:47:46.026Z,13.90
2022-08-26T05:50:23.237Z,17.17
2022-08-26T05:52:55.561Z,15.90
2022-08-26T05:55:27.453Z,16.70
2022-08-26T05:57:59.473Z,16.73
2022-08-26T06:00:35.970Z,18.52
2022-08-26T06:03:11.413Z,18.58
2022-08-26T06:05:43.296Z,16.60
2022-08-26T06:08:19.158Z,17.42
2022-08-26T06:10:54.041Z,23.70
2022-08-26T06:13:27.338Z,24.92
2022-08-26T06:16:07.524Z,12.85
2022-08-26T06:18:43.514Z,23.80
2022-08-26T06:21:17.349Z,25.92
2022-08-26T06:24:09.631Z,22.35
2022-08-26T06:26:46.860Z,18.27
2022-08-26T06:29:25.764Z,24.02
2022-08-26T06:32:01.179Z,24.63
2022-08-26T06:34:33.808Z,15.77
2022-08-26T06:37:06.645Z,18.85
2022-08-26T06:39:40.091Z,19.00
2022-08-26T06:42:12.079Z,13.18
2022-08-26T06:44:44.697Z,24.55
2022-08-26T06:47:18.005Z,25.52
2022-08-26T06:49:50.362Z,16.88
2022-08-26T06:52:24.379Z,17.42
2022-08-26T06:54:56.514Z,14.90
2022-08-26T06:57:28.613Z,18.55
2022-08-26T07:00:06.347Z,21.58
2022-08-26T07:02:39.690Z,13.50
2022-08-26T07:05:11.546Z,14.85
2022-08-26T07:07:43.405Z,18.23
2022-08-26T07:10:15.680Z,16.38
2022-08-26T07:12:48.975Z,20.95
2022-08-26T07:18:00.355Z,11.45
2022-08-26T07:20:32.131Z,14.65
2022-08-26T07:23:04.065Z,16.42
2022-08-26T07:25:38.735Z,15.83
2022-08-26T07:28:10.824Z,17.30
2022-08-26T07:30:42.684Z,12.93
2022-08-26T07:33:17.705Z,15.95
2022-08-26T07:35:49.592Z,17.52
2022-08-26T07:38:21.416Z,14.48
2022-08-26T07:40:53.207Z,15.07
2022-08-26T07:43:25.168Z,19.13
2022-08-26T07:45:57.729Z,18.45
2022-08-26T07:48:31.255Z,15.07
2022-08-26T07:51:06.216Z,15.07
2022-08-26T07:53:39.787Z,12.30
2022-08-26T07:56:11.631Z,15.35
2022-08-26T07:58:45.728Z,17.65
2022-08-26T08:01:20.353Z,12.57
2022-08-26T08:03:54.232Z,13.70
2022-08-26T08:06:27.511Z,24.08
2022-08-26T08:09:00.916Z,14.88
2022-08-26T08:11:33.549Z,18.05
2022-08-26T08:14:08.242Z,15.00
2022-08-26T08:16:46.050Z,15.98
2022-08-26T08:19:20.046Z,13.52
2022-08-26T08:21:53.622Z,14.65
2022-08-26T08:24:26.644Z,11.98
2022-08-26T08:26:58.946Z,15.90
2022-08-26T08:29:31.254Z,15.90
2022-08-26T08:32:04.965Z,20.25
2022-08-26T08:34:38.270Z,14.68
2022-08-26T08:39:42.814Z,16.67
2022-08-26T08:42:39.011Z,17.20
2022-08-26T08:45:13.811Z,15.70
2022-08-26T08:47:50.338Z,11.32
2022-08-26T08:50:30.426Z,13.65
2022-08-26T08:53:10.376Z,13.82
2022-08-26T08:55:56.497Z,15.90
2022-08-26T08:58:42.090Z,14.80
2022-08-26T09:01:24.582Z,13.52
2022-08-26T09:04:21.746Z,16.13
2022-08-26T09:09:38.325Z,17.27
2022-08-26T09:12:16.709Z,21.15
2022-08-26T09:14:56.669Z,15.73
2022-08-26T09:17:42.938Z,13.52
2022-08-26T09:20:34.855Z,13.02
2022-08-26T09:23:11.030Z,19.07
2022-08-26T09:25:48.960Z,18.50
2022-08-26T09:28:23.624Z,13.15
2022-08-26T09:31:07.945Z,14.32
2022-08-26T09:33:43.314Z,9.80
2022-08-26T09:36:22.591Z,15.35
2022-08-26T09:38:55.816Z,15.55
2022-08-26T09:41:32.469Z,13.75
2022-08-26T09:44:14.467Z,16.35
2022-08-26T09:46:55.194Z,14.82
2022-08-26T09:49:35.599Z,16.02
2022-08-26T09:52:15.726Z,12.82
2022-08-26T09:55:02.237Z,12.43
2022-08-26T09:57:36.569Z,13.75
2022-08-26T10:00:27.893Z,15.80
2022-08-26T10:03:01.774Z,13.48
2022-08-26T10:05:40.541Z,13.25
2022-08-26T10:08:25.854Z,20.35
2022-08-26T10:11:01.489Z,14.82
2022-08-26T10:13:36.357Z,21.98
2022-08-26T10:16:14.969Z,20.48
2022-08-26T10:18:56.775Z,17.92
2022-08-26T10:21:35.925Z,21.52
2022-08-26T10:24:11.455Z,20.73
2022-08-26T10:26:49.310Z,17.38
2022-08-26T10:29:26.043Z,18.30
2022-08-26T10:32:02.664Z,11.88
2022-08-26T10:34:35.666Z,12.38
2022-08-26T10:37:14.327Z,16.90
2022-08-26T10:39:56.997Z,17.65
2022-08-26T10:42:37.514Z,16.77
2022-08-26T10:45:15.016Z,18.45
2022-08-26T10:47:51.626Z,20.45
2022-08-26T10:50:27.336Z,18.63
2022-08-26T10:53:07.624Z,16.90
2022-08-26T10:55:48.167Z,16.17
2022-08-26T10:58:41.754Z,17.52
2022-08-26T11:01:40.665Z,14.82
2022-08-26T11:04:23.216Z,13.10
2022-08-26T11:07:31.859Z,15.25
2022-08-26T11:10:07.480Z,16.77
2022-08-26T11:12:54.850Z,12.95
2022-08-26T11:16:08.196Z,15.55
2022-08-26T11:18:46.799Z,18.35
2022-08-26T11:21:44.215Z,16.77
2022-08-26T11:24:45.091Z,15.55
2022-08-26T11:28:02.611Z,15.82
2022-08-26T11:30:42.640Z,16.95
2022-08-26T11:33:51.003Z,15.05
2022-08-26T11:36:43.222Z,16.80
2022-08-26T11:39:20.244Z,19.65
2022-08-26T11:41:55.463Z,17.73
2022-08-26T11:44:38.932Z,15.60
2022-08-26T11:47:15.062Z,29.75
2022-08-26T11:49:48.852Z,16.38
2022-08-26T11:52:22.623Z,12.63
2022-08-26T11:55:01.650Z,15.70
2022-08-26T11:57:35.522Z,16.23
2022-08-26T12:00:14.196Z,29.77
2022-08-26T12:02:46.229Z,12.45
2022-08-26T12:05:24.042Z,8.18
2022-08-26T12:08:06.265Z,9.82
2022-08-26T12:10:38.593Z,10.80
2022-08-26T12:13:21.182Z,12.43
2022-08-26T12:15:55.993Z,12.00
2022-08-26T12:18:31.692Z,13.93
2022-08-26T12:21:13.757Z,15.38
2022-08-26T12:23:50.062Z,13.80
2022-08-26T12:26:25.198Z,10.88
2022-08-26T12:28:59.161Z,11.77
2022-08-26T12:31:33.837Z,7.30
2022-08-26T12:34:17.678Z,7.38
2022-08-26T12:36:56.297Z,7.50
2022-08-26T12:39:38.238Z,6.68
2022-08-26T12:42:24.139Z,6.20
2022-08-26T12:45:00.547Z,5.70
2022-08-26T12:47:42.925Z,9.90
2022-08-26T12:52:58.738Z,12.02
2022-08-26T12:55:42.319Z,8.68
2022-08-26T12:58:26.561Z,10.77
2022-08-26T13:01:24.898Z,8.25
2022-08-26T13:03:56.760Z,9.55
2022-08-26T13:06:34.169Z,9.73
2022-08-26T13:09:31.314Z,12.85
2022-08-26T13:12:03.438Z,7.68
2022-08-26T13:14:35.307Z,10.30
2022-08-26T13:17:07.161Z,9.52
2022-08-26T13:19:38.962Z,10.65
2022-08-26T13:22:13.084Z,9.65
2022-08-26T13:24:46.397Z,10.07
2022-08-26T13:27:20.504Z,7.55
2022-08-26T13:29:52.947Z,10.20
2022-08-26T13:32:25.564Z,10.38
2022-08-26T13:34:59.716Z,9.35
2022-08-26T13:37:34.365Z,13.77
2022-08-26T13:40:10.070Z,10.10
2022-08-26T13:42:49.602Z,8.00
2022-08-26T13:50:25.015Z,7.87
2022-08-26T13:52:57.072Z,8.57
2022-08-26T13:55:30.293Z,5.20
2022-08-26T13:58:02.067Z,6.60
2022-08-26T14:00:34.052Z,6.65
2022-08-26T14:03:09.205Z,6.13
2022-08-26T14:05:44.502Z,7.53
2022-08-26T14:08:16.767Z,10.25
2022-08-26T14:10:50.313Z,10.10
2022-08-26T14:13:22.546Z,10.13
2022-08-26T14:23:32.611Z,7.07
2022-08-26T14:26:08.281Z,5.85
2022-08-26T14:28:40.386Z,6.65
2022-08-26T14:31:12.541Z,10.85
2022-08-26T14:33:44.579Z,8.07
2022-08-26T14:36:42.736Z,8.57
2022-08-26T14:39:14.715Z,9.07
2022-08-26T14:41:53.733Z,10.45
2022-08-26T14:44:33.377Z,8.48
2022-08-26T14:47:06.605Z,10.98
2022-08-26T14:49:38.427Z,6.25
2022-08-26T14:52:10.303Z,5.85
2022-08-26T14:54:42.102Z,11.80
2022-08-26T14:57:15.446Z,6.78
2022-08-26T14:59:50.489Z,7.47
2022-08-26T15:02:33.556Z,7.03
2022-08-26T15:05:08.458Z,11.30
2022-08-26T15:07:40.705Z,7.88
2022-08-26T15:12:47.524Z,7.60
2022-08-26T15:15:19.475Z,6.72
2022-08-26T15:17:51.330Z,6.78
2022-08-26T15:20:23.301Z,6.15
2022-08-26T15:22:55.147Z,7.60
2022-08-26T15:25:27.569Z,6.85
2022-08-26T15:28:00.759Z,8.63
2022-08-26T15:30:33.734Z,4.95
2022-08-26T15:33:05.549Z,5.50
2022-08-26T15:35:46.885Z,9.52
2022-08-26T15:38:18.673Z,6.18
2022-08-26T15:40:50.441Z,8.43
2022-08-26T15:43:29.017Z,5.50
2022-08-26T15:46:01.325Z,7.75
2022-08-26T15:48:33.271Z,11.75
2022-08-26T15:51:06.678Z,7.75
2022-08-26T15:53:38.467Z,8.73
2022-08-26T15:56:10.269Z,9.63
2022-08-26T15:58:43.712Z,9.30
2022-08-26T16:01:27.424Z,10.48
2022-08-26T16:04:00.552Z,7.50
2022-08-26T16:06:35.086Z,11.77
2022-08-26T16:09:07.949Z,13.30
2022-08-26T16:11:39.818Z,21.25
2022-08-26T16:14:12.921Z,11.33
2022-08-26T16:16:45.111Z,7.85
2022-08-26T16:19:17.137Z,8.35
2022-08-26T16:21:51.185Z,7.30
2022-08-26T16:24:27.169Z,7.57
2022-08-26T16:27:02.221Z,7.80
2022-08-26T16:29:38.093Z,6.97
2022-08-26T16:32:09.872Z,8.52
2022-08-26T16:34:56.131Z,8.00
2022-08-26T16:37:28.430Z,5.97
2022-08-26T16:40:00.621Z,5.75
2022-08-26T16:42:32.618Z,4.82
2022-08-26T16:45:06.795Z,5.43
2022-08-26T16:47:38.876Z,7.03
2022-08-26T16:50:12.789Z,6.97
2022-08-26T16:52:44.787Z,7.18
2022-08-26T16:55:17.037Z,12.57
2022-08-26T16:57:49.729Z,7.73
2022-08-26T17:00:27.700Z,8.90
2022-08-26T17:03:00.951Z,8.20
2022-08-26T17:05:32.992Z,7.82
2022-08-26T17:08:05.780Z,8.63
2022-08-26T17:10:37.719Z,7.68
2022-08-26T17:13:09.684Z,7.68
2022-08-26T17:15:45.283Z,10.10
2022-08-26T17:18:17.111Z,8.52
2022-08-26T17:20:49.385Z,6.15
2022-08-26T17:23:22.151Z,7.07
2022-08-26T17:25:53.914Z,9.98
2022-08-26T17:28:25.758Z,5.63
2022-08-26T17:30:59.275Z,6.53
2022-08-26T17:33:31.425Z,10.65
2022-08-26T17:36:04.180Z,9.20
2022-08-26T17:38:36.557Z,11.90
2022-08-26T17:41:09.708Z,11.17
2022-08-26T17:46:14.787Z,11.05
2022-08-26T17:48:48.257Z,12.63
2022-08-26T17:51:20.911Z,21.30
2022-08-26T17:53:52.845Z,12.15
2022-08-26T17:56:27.109Z,12.02
2022-08-26T17:59:02.515Z,15.95
2022-08-26T18:01:37.457Z,14.38
2022-08-26T18:04:10.092Z,15.52
2022-08-26T18:06:43.323Z,13.55
2022-08-26T18:11:46.730Z,12.40
2022-08-26T18:14:18.565Z,12.43
2022-08-26T18:16:51.733Z,10.13
2022-08-26T18:19:23.508Z,11.38
2022-08-26T18:21:55.552Z,11.35
2022-08-26T18:24:30.334Z,9.35
2022-08-26T18:27:02.201Z,10.93
2022-08-26T18:29:34.202Z,8.88
2022-08-26T18:32:08.560Z,10.52
2022-08-26T18:34:40.421Z,10.55
2022-08-26T18:39:50.693Z,11.40
2022-08-26T18:42:24.026Z,11.70
2022-08-26T18:47:30.025Z,11.93
2022-08-26T18:50:02.257Z,6.35
2022-08-26T18:52:34.085Z,10.70
2022-08-26T18:55:06.588Z,8.60
2022-08-26T18:57:38.421Z,7.70
2022-08-26T19:00:11.563Z,10.02
2022-08-26T19:02:52.149Z,9.88
2022-08-26T19:05:25.430Z,11.57
2022-08-26T19:07:57.317Z,8.38
2022-08-26T19:10:30.133Z,11.13
2022-08-26T19:13:06.100Z,9.45
2022-08-26T19:15:40.193Z,10.05
2022-08-26T19:18:14.729Z,9.80
2022-08-26T19:20:47.806Z,12.10
2022-08-26T19:23:31.339Z,12.15
2022-08-26T19:26:05.223Z,13.10
2022-08-26T19:28:40.705Z,10.20
2022-08-26T19:31:12.660Z,11.32
2022-08-26T19:33:45.910Z,9.48
2022-08-26T19:36:21.671Z,11.25
2022-08-26T19:38:54.376Z,10.45
2022-08-26T19:41:37.106Z,13.40
2022-08-26T19:44:12.976Z,11.95
2022-08-26T19:46:47.944Z,10.65
2022-08-26T19:49:21.068Z,11.32
2022-08-26T19:51:54.128Z,10.65
2022-08-26T19:54:27.107Z,8.80
2022-08-26T19:56:58.923Z,9.70
2022-08-26T19:59:32.956Z,8.60
2022-08-26T20:02:10.027Z,9.32
2022-08-26T20:04:44.658Z,11.25
2022-08-26T20:07:18.892Z,10.68
2022-08-26T20:09:51.263Z,10.93
2022-08-26T20:12:24.809Z,12.07
2022-08-26T20:14:56.642Z,13.65
2022-08-26T20:17:28.536Z,10.52
2022-08-26T20:20:28.503Z,11.57
2022-08-26T20:23:05.527Z,10.85
2022-08-26T20:25:37.621Z,11.55
2022-08-26T20:28:09.906Z,10.68
2022-08-26T20:30:41.850Z,12.87
2022-08-26T20:33:13.666Z,9.45
2022-08-26T20:35:47.001Z,13.95
2022-08-26T20:40:54.177Z,7.95
2022-08-26T20:43:28.261Z,10.45
2022-08-26T20:46:00.565Z,10.32
2022-08-26T20:48:32.419Z,11.37
2022-08-26T20:51:07.040Z,9.55
2022-08-26T20:53:38.984Z,12.82
2022-08-26T20:56:12.662Z,10.88
2022-08-26T20:58:44.454Z,15.45
2022-08-26T21:01:19.334Z,12.13
2022-08-26T21:03:52.357Z,12.60
2022-08-26T21:06:25.697Z,12.35
2022-08-26T21:08:58.391Z,12.77
2022-08-26T21:11:30.745Z,11.82
2022-08-26T21:14:06.893Z,13.57
2022-08-26T21:16:48.319Z,13.88
2022-08-26T21:19:20.204Z,14.77
2022-08-26T21:21:53.496Z,13.20
2022-08-26T21:26:56.930Z,11.30
2022-08-26T21:29:28.778Z,13.82
2022-08-26T21:32:00.637Z,13.70
2022-08-26T21:34:32.509Z,14.68
2022-08-26T21:37:08.954Z,15.65
2022-08-26T21:39:48.322Z,15.85
2022-08-26T21:42:20.442Z,16.42
2022-08-26T21:44:53.366Z,17.30
2022-08-26T21:47:25.720Z,14.55
2022-08-26T21:49:57.556Z,15.47
2022-08-26T21:52:30.790Z,17.17
2022-08-26T21:55:04.299Z,18.13
2022-08-26T21:57:40.952Z,18.63
2022-08-26T22:00:15.677Z,16.60
2022-08-26T22:02:50.105Z,13.32
2022-08-26T22:05:21.933Z,16.10
2022-08-26T22:07:55.287Z,16.20
2022-08-26T22:12:58.679Z,19.35
2022-08-26T22:15:32.962Z,16.88
2022-08-26T22:18:06.066Z,19.13
2022-08-26T22:20:37.867Z,18.95
2022-08-26T22:23:11.009Z,17.30
2022-08-26T22:25:42.771Z,18.48
2022-08-26T22:28:15.248Z,18.58
2022-08-26T22:30:47.382Z,16.70
2022-08-26T22:33:19.637Z,19.00
2022-08-26T22:35:52.815Z,19.83
2022-08-26T22:38:26.176Z,21.77
2022-08-26T22:43:31.947Z,19.58
2022-08-26T22:46:04.312Z,19.15
2022-08-26T22:48:37.960Z,15.33
2022-08-26T22:51:09.795Z,20.13
2022-08-26T22:53:45.173Z,17.85
2022-08-26T22:56:19.022Z,18.05
2022-08-26T22:58:50.888Z,19.67
2022-08-26T23:01:22.835Z,19.40
2022-08-26T23:03:54.705Z,15.27
2022-08-26T23:06:26.543Z,18.73
2022-08-26T23:08:59.690Z,15.30
2022-08-26T23:11:31.903Z,17.20
2022-08-26T23:14:05.089Z,15.85
2022-08-26T23:16:41.631Z,15.63
2022-08-26T23:19:15.430Z,16.45
2022-08-26T23:21:48.041Z,16.83
2022-08-26T23:24:21.351Z,19.92
2022-08-26T23:29:24.845Z,21.45
2022-08-26T23:31:56.712Z,22.17
2022-08-26T23:34:47.286Z,21.30
2022-08-26T23:37:20.378Z,25.45
2022-08-26T23:42:26.889Z,27.73
2022-08-26T23:45:01.617Z,27.10
2022-08-26T23:47:33.697Z,29.73
2022-08-26T23:50:07.057Z,28.58
2022-08-26T23:55:31.487Z,28.83
2022-08-26T23:58:03.954Z,33.88
